TimeHST,TemperatureF,Dew PointF,Humidity,Sea Level PressureIn,VisibilityMPH,Wind Direction,Wind SpeedMPH,Gust SpeedMPH,PrecipitationIn,Events,Conditions,WindDirDegrees,DateUTC
12:53 AM,73.0,64.0,73,30.00,10.0,Calm,Calm,-,N/A,,Overcast,0,2012-10-23 10:53:00
1:53 AM,72.0,64.0,76,29.99,10.0,Calm,Calm,-,N/A,,Clear,0,2012-10-23 11:53:00
2:53 AM,71.1,63.0,75,29.97,10.0,Calm,Calm,-,N/A,,Clear,0,2012-10-23 12:53:00
3:53 AM,71.1,63.0,75,29.96,10.0,Variable,3.5,-,N/A,,Clear,0,2012-10-23 13:53:00
4:33 AM,71.6,62.6,73,29.94,10.0,Calm,Calm,-,N/A,,Partly Cloudy,0,2012-10-23 14:33:00
4:53 AM,71.1,63.0,75,29.97,10.0,Calm,Calm,-,N/A,,Partly Cloudy,0,2012-10-23 14:53:00
5:53 AM,71.1,64.0,78,29.98,10.0,Calm,Calm,-,N/A,,Clear,0,2012-10-23 15:53:00
6:53 AM,71.1,64.0,78,29.99,10.0,Calm,Calm,-,N/A,,Clear,0,2012-10-23 16:53:00
7:53 AM,73.9,66.0,76,30.01,10.0,Calm,Calm,-,N/A,,Clear,0,2012-10-23 17:53:00
8:53 AM,77.0,66.9,71,30.01,10.0,Variable,4.6,-,N/A,,Clear,0,2012-10-23 18:53:00
9:53 AM,79.0,66.9,66,30.01,10.0,East,4.6,-,N/A,,Clear,90,2012-10-23 19:53:00
10:53 AM,81.0,69.1,67,30.00,10.0,SE,8.1,-,N/A,,Clear,140,2012-10-23 20:53:00
11:53 AM,82.0,69.1,65,29.97,10.0,SE,8.1,-,N/A,,Clear,140,2012-10-23 21:53:00
12:53 PM,82.9,69.1,63,29.94,10.0,SSE,12.7,-,N/A,,Clear,150,2012-10-23 22:53:00
1:53 PM,82.9,69.1,63,29.92,10.0,SSE,15.0,-,N/A,,Clear,150,2012-10-23 23:53:00
2:53 PM,82.0,69.1,65,29.91,10.0,SSE,10.4,-,N/A,,Clear,150,2012-10-24 00:53:00
3:53 PM,81.0,69.1,67,29.91,10.0,South,6.9,-,N/A,,Clear,170,2012-10-24 01:53:00
4:53 PM,80.1,68.0,67,29.92,10.0,South,6.9,-,N/A,,Clear,170,2012-10-24 02:53:00
5:53 PM,78.1,68.0,71,29.94,10.0,South,5.8,-,N/A,,Clear,190,2012-10-24 03:53:00
6:53 PM,78.1,69.1,74,29.96,10.0,Calm,Calm,-,N/A,,Mostly Cloudy,0,2012-10-24 04:53:00
7:53 PM,78.1,70.0,76,29.98,10.0,Calm,Calm,-,N/A,,Overcast,0,2012-10-24 05:53:00
8:53 PM,75.0,69.1,82,29.99,10.0,Calm,Calm,-,N/A,,Partly Cloudy,0,2012-10-24 06:53:00
9:53 PM,75.0,69.1,82,29.99,10.0,Calm,Calm,-,N/A,,Overcast,0,2012-10-24 07:53:00
10:53 PM,75.0,69.1,82,29.99,10.0,Calm,Calm,-,N/A,,Overcast,0,2012-10-24 08:53:00
11:53 PM,75.0,68.0,79,29.97,10.0,Calm,Calm,-,N/A,,Mostly Cloudy,0,2012-10-24 09:53:00